Time;durP1;ratioP1;P1;durP2;ratioP2;P2;SDS_P1;SDS_P2;PMS_P1;PMS_P2;Temp;Humidity;BMP_temperature;BMP_pressure;BME280_temperature;BME280_humidity;BME280_pressure;Samples;Min_cycle;Max_cycle;Signal;HPM_P1;HPM_P2
2022/01/29 00:01:09;;;;;;;101.18;31.30;;;;;;;5.27;92.45;102945.38;5068488;28;20256;-77
2022/01/29 00:03:36;;;;;;;103.07;31.30;;;;;;;5.29;92.74;102948.97;5072527;28;20048;-76
2022/01/29 00:06:02;;;;;;;115.40;33.53;;;;;;;5.31;92.88;102943.91;5084022;28;20020;-77
2022/01/29 00:08:27;;;;;;;114.45;33.45;;;;;;;5.31;92.75;102928.41;5077405;28;20032;-76
2022/01/29 00:10:56;;;;;;;104.95;33.35;;;;;;;5.31;92.91;102918.97;5078376;28;20031;-77
2022/01/29 00:13:21;;;;;;;103.75;32.88;;;;;;;5.32;92.60;102905.25;5077127;28;20045;-76
2022/01/29 00:15:47;;;;;;;109.18;32.28;;;;;;;5.34;92.39;102915.72;5076541;28;20047;-76
2022/01/29 00:18:12;;;;;;;111.45;32.97;;;;;;;5.33;92.49;102914.84;5082475;28;20554;-76
2022/01/29 00:20:37;;;;;;;108.72;33.25;;;;;;;5.34;92.72;102918.31;5065773;28;20036;-76
2022/01/29 00:23:03;;;;;;;104.78;31.98;;;;;;;5.34;92.25;102914.03;5074122;28;20015;-77
2022/01/29 00:25:28;;;;;;;112.18;32.33;;;;;;;5.34;92.39;102908.84;5082846;28;20032;-77
2022/01/29 00:27:54;;;;;;;118.65;33.85;;;;;;;5.36;92.50;102909.00;5080851;28;20013;-77
2022/01/29 00:30:24;;;;;;;106.38;32.10;;;;;;;5.33;92.38;102901.91;5082258;28;20024;-77
2022/01/29 00:32:50;;;;;;;105.88;32.10;;;;;;;5.35;92.98;102909.78;5081867;28;20106;-77
2022/01/29 00:35:16;;;;;;;110.95;32.50;;;;;;;5.35;92.43;102897.75;5082647;28;20123;-77
2022/01/29 00:37:41;;;;;;;102.95;32.75;;;;;;;5.36;92.68;102896.09;5078141;28;20013;-77
2022/01/29 00:40:07;;;;;;;99.15;31.65;;;;;;;5.37;92.68;102887.53;5068459;28;20096;-77
2022/01/29 00:42:33;;;;;;;106.10;31.83;;;;;;;5.37;92.89;102880.69;5083549;28;20293;-77
2022/01/29 00:44:58;;;;;;;107.38;33.83;;;;;;;5.39;92.87;102892.03;5078032;28;20016;-77
2022/01/29 00:47:23;;;;;;;106.28;33.45;;;;;;;5.39;92.79;102896.31;5082289;28;20178;-77
2022/01/29 00:49:48;;;;;;;107.13;32.20;;;;;;;5.41;93.05;102894.75;5080706;28;20147;-77
2022/01/29 00:52:14;;;;;;;113.55;33.05;;;;;;;5.41;92.92;102886.97;5072852;28;20027;-77
2022/01/29 00:54:40;;;;;;;109.65;34.22;;;;;;;5.42;92.65;102880.13;5081803;28;20066;-76
2022/01/29 00:57:06;;;;;;;108.38;32.63;;;;;;;5.42;92.63;102874.94;5070458;28;20017;-77
2022/01/29 00:59:33;;;;;;;114.18;34.30;;;;;;;5.44;92.85;102878.56;5071619;28;20044;-77
2022/01/29 01:02:02;;;;;;;102.47;33.30;;;;;;;5.44;93.01;102875.97;5078726;28;20079;-77
2022/01/29 01:04:28;;;;;;;113.55;34.05;;;;;;;5.45;92.72;102875.22;5076331;28;20017;-77
2022/01/29 01:06:53;;;;;;;108.35;33.40;;;;;;;5.46;92.76;102874.41;5076301;28;20031;-77
2022/01/29 01:09:18;;;;;;;99.38;33.88;;;;;;;5.45;93.15;102858.00;5080424;28;20008;-77
2022/01/29 01:11:44;;;;;;;110.05;34.70;;;;;;;5.45;92.88;102852.84;5069035;28;20028;-77
2022/01/29 01:14:09;;;;;;;111.72;33.25;;;;;;;5.45;93.14;102845.06;5075919;28;20339;-77
2022/01/29 01:16:34;;;;;;;111.05;33.67;;;;;;;5.46;93.37;102843.38;5075344;28;20103;-77
2022/01/29 01:19:00;;;;;;;107.28;33.28;;;;;;;5.46;93.48;102835.63;5077975;28;20036;-77
2022/01/29 01:21:25;;;;;;;114.05;34.58;;;;;;;5.45;93.61;102829.56;5079747;28;20020;-77
2022/01/29 01:23:50;;;;;;;112.30;35.08;;;;;;;5.46;93.92;102826.19;5077526;28;20020;-77
2022/01/29 01:26:16;;;;;;;115.80;36.08;;;;;;;5.47;93.47;102817.63;5073045;28;20024;-76
2022/01/29 01:28:41;;;;;;;101.60;32.97;;;;;;;5.47;93.57;102804.72;5084505;28;20044;-77
2022/01/29 01:31:06;;;;;;;121.82;36.30;;;;;;;5.47;93.70;102806.41;5078191;28;20058;-77
2022/01/29 01:33:32;;;;;;;115.18;33.88;;;;;;;5.44;93.80;102799.31;5075206;28;20024;-77
2022/01/29 01:36:01;;;;;;;106.75;34.03;;;;;;;5.44;93.69;102796.72;5083974;28;20024;-77
2022/01/29 01:41:02;;;;;;;106.93;33.70;;;;;;;5.43;93.98;102794.94;5079256;28;20024;-76
2022/01/29 01:43:28;;;;;;;107.93;34.47;;;;;;;5.43;94.41;102799.19;5084058;28;20035;-77
2022/01/29 01:45:54;;;;;;;114.95;34.58;;;;;;;5.42;94.33;102805.16;5084880;28;20446;-77
2022/01/29 01:48:19;;;;;;;110.88;34.92;;;;;;;5.42;94.54;102797.38;5082605;28;20044;-76
2022/01/29 01:50:45;;;;;;;106.93;33.47;;;;;;;5.42;94.75;102794.81;5084303;28;20073;-77
2022/01/29 01:53:10;;;;;;;104.55;34.25;;;;;;;5.40;94.96;102785.28;5082760;28;20032;-77
2022/01/29 01:55:37;;;;;;;100.70;31.73;;;;;;;5.40;95.40;102789.50;5073966;28;20024;-77
2022/01/29 01:58:03;;;;;;;102.20;32.20;;;;;;;5.39;95.47;102780.00;5077890;28;20032;-76
2022/01/29 02:00:29;;;;;;;96.35;32.47;;;;;;;5.37;95.47;102773.78;5078969;28;20229;-76
2022/01/29 02:02:55;;;;;;;102.15;34.25;;;;;;;5.36;96.03;102767.72;5083483;28;20313;-77
2022/01/29 02:05:21;;;;;;;99.53;31.10;;;;;;;5.36;96.17;102764.25;5082295;28;20016;-77
2022/01/29 02:07:46;;;;;;;97.20;32.28;;;;;;;5.36;96.24;102751.31;5079624;28;20286;-76
2022/01/29 02:10:13;;;;;;;102.03;31.20;;;;;;;5.32;96.52;102750.19;5079307;28;20024;-76
2022/01/29 02:12:49;;;;;;;100.40;32.30;;;;;;;5.33;96.61;102759.75;5085746;28;20031;-77
2022/01/29 02:15:16;;;;;;;94.93;30.60;;;;;;;5.31;96.29;102748.38;5084104;28;20032;-76
2022/01/29 02:17:41;;;;;;;92.38;29.83;;;;;;;5.30;96.55;102738.84;5079481;28;20036;-76
2022/01/29 02:20:07;;;;;;;90.63;30.65;;;;;;;5.29;96.58;102749.94;5081107;28;20219;-77
2022/01/29 02:22:33;;;;;;;97.28;30.75;;;;;;;5.30;96.65;102746.59;5084692;28;20032;-77
2022/01/29 02:24:58;;;;;;;87.93;31.33;;;;;;;5.30;96.57;102751.75;5080114;28;20012;-76
2022/01/29 02:27:23;;;;;;;90.85;30.35;;;;;;;5.30;97.13;102745.66;5085241;28;20019;-77
2022/01/29 02:29:49;;;;;;;93.05;30.23;;;;;;;5.28;97.10;102736.91;5081085;28;20308;-77
2022/01/29 02:32:15;;;;;;;88.57;29.83;;;;;;;5.28;96.96;102737.78;5078512;28;20321;-76
2022/01/29 02:34:43;;;;;;;94.93;31.00;;;;;;;5.28;96.96;102732.63;5079594;28;20012;-76
2022/01/29 02:37:08;;;;;;;85.95;28.73;;;;;;;5.28;97.02;102730.03;5079873;28;20024;-76
2022/01/29 02:39:34;;;;;;;92.63;29.35;;;;;;;5.29;97.59;102729.28;5080468;28;20066;-76
2022/01/29 02:42:02;;;;;;;83.88;28.02;;;;;;;5.30;96.99;102731.06;5077926;28;20175;-76
2022/01/29 02:44:28;;;;;;;84.33;28.23;;;;;;;5.32;97.38;102734.66;5085340;28;20020;-77
2022/01/29 02:46:56;;;;;;;86.90;27.75;;;;;;;5.33;97.55;102736.47;5081534;28;20082;-76
2022/01/29 02:49:24;;;;;;;86.45;27.90;;;;;;;5.33;97.78;102723.56;5079263;28;20201;-76
2022/01/29 02:51:55;;;;;;;83.55;27.38;;;;;;;5.33;97.90;102717.47;5080376;28;20039;-76
2022/01/29 02:54:22;;;;;;;84.88;28.48;;;;;;;5.35;97.86;102721.06;5076833;28;20054;-77
2022/01/29 02:56:47;;;;;;;83.70;26.83;;;;;;;5.35;98.01;102714.22;5078257;28;20040;-77
2022/01/29 02:59:13;;;;;;;82.57;26.83;;;;;;;5.36;97.78;102712.53;5082674;28;20286;-77
2022/01/29 03:01:38;;;;;;;83.40;27.58;;;;;;;5.36;98.02;102704.78;5082238;28;20148;-77
2022/01/29 03:04:05;;;;;;;88.47;28.40;;;;;;;5.36;97.99;102713.44;5084540;28;20082;-76
2022/01/29 03:06:30;;;;;;;82.72;28.85;;;;;;;5.36;98.13;102705.69;5082111;28;20162;-76
2022/01/29 03:08:56;;;;;;;90.60;27.33;;;;;;;5.37;98.25;102715.25;5079929;28;20016;-77
2022/01/29 03:11:22;;;;;;;82.28;27.52;;;;;;;5.37;98.40;102702.31;5084294;28;20028;-77
2022/01/29 03:13:48;;;;;;;86.50;28.67;;;;;;;5.36;98.71;102700.50;5084310;28;20070;-76
2022/01/29 03:16:14;;;;;;;86.57;27.42;;;;;;;5.37;98.26;102693.66;5072892;28;20115;-77
2022/01/29 03:18:40;;;;;;;81.57;26.55;;;;;;;5.38;98.25;102683.41;5084450;28;20032;-76
2022/01/29 03:21:06;;;;;;;84.97;28.15;;;;;;;5.40;98.21;102687.03;5071164;28;20017;-76
2022/01/29 03:23:31;;;;;;;82.43;26.75;;;;;;;5.39;98.64;102685.22;5084437;28;20028;-76
2022/01/29 03:25:56;;;;;;;85.35;27.48;;;;;;;5.39;98.27;102674.00;5078155;28;20020;-76
2022/01/29 03:28:22;;;;;;;84.65;27.35;;;;;;;5.39;98.78;102681.75;5083931;28;20020;-76
2022/01/29 03:30:47;;;;;;;85.78;28.42;;;;;;;5.38;98.50;102675.66;5076184;28;20083;-77
2022/01/29 03:33:12;;;;;;;90.75;29.08;;;;;;;5.39;98.46;102664.53;5080186;28;20096;-76
2022/01/29 03:35:38;;;;;;;79.95;27.73;;;;;;;5.40;98.48;102671.53;5078027;28;20286;-76
2022/01/29 03:38:04;;;;;;;87.50;27.08;;;;;;;5.42;98.87;102662.97;5083772;28;20028;-77
2022/01/29 03:40:31;;;;;;;80.30;26.25;;;;;;;5.42;98.66;102668.13;5082991;28;20021;-76
2022/01/29 03:43:04;;;;;;;87.45;28.13;;;;;;;5.43;98.94;102662.19;5082456;28;20016;-76
2022/01/29 03:45:29;;;;;;;87.75;27.33;;;;;;;5.44;98.96;102656.25;5081535;28;20052;-77
2022/01/29 03:47:55;;;;;;;93.53;28.85;;;;;;;5.44;98.78;102645.91;5082121;28;20039;-76
2022/01/29 03:50:21;;;;;;;88.60;28.20;;;;;;;5.45;98.98;102650.28;5078341;28;20088;-76
2022/01/29 03:52:46;;;;;;;96.35;28.38;;;;;;;5.44;98.83;102653.66;5079539;28;20040;-77
2022/01/29 03:55:11;;;;;;;87.10;28.10;;;;;;;5.46;98.66;102655.56;5082638;28;20208;-76
2022/01/29 03:57:36;;;;;;;89.03;26.70;;;;;;;5.46;98.67;102645.22;5076400;28;20038;-76
2022/01/29 04:00:04;;;;;;;85.40;26.40;;;;;;;5.47;99.01;102653.88;5080637;28;20021;-76
2022/01/29 04:02:30;;;;;;;85.55;27.23;;;;;;;5.47;98.74;102641.84;5080311;28;20075;-76
2022/01/29 04:04:55;;;;;;;85.75;25.92;;;;;;;5.48;98.94;102643.63;5080942;28;20035;-76
2022/01/29 04:07:20;;;;;;;80.75;26.42;;;;;;;5.48;98.69;102648.81;5081459;28;20270;-76
2022/01/29 04:09:49;;;;;;;85.72;26.67;;;;;;;5.51;98.72;102640.38;5082268;28;20175;-76
2022/01/29 04:12:14;;;;;;;82.57;26.67;;;;;;;5.50;98.92;102647.22;5083255;28;20028;-76
2022/01/29 04:14:40;;;;;;;74.72;24.33;;;;;;;5.52;98.64;102639.59;5082483;28;20294;-77
2022/01/29 04:17:07;;;;;;;79.28;25.60;;;;;;;5.53;99.05;102649.16;5075039;28;20224;-76
2022/01/29 04:19:33;;;;;;;82.57;24.45;;;;;;;5.53;98.97;102644.88;5081943;28;20028;-76
2022/01/29 04:21:58;;;;;;;80.57;24.83;;;;;;;5.54;99.25;102638.03;5083596;28;20020;-76
2022/01/29 04:24:23;;;;;;;85.03;25.20;;;;;;;5.55;98.82;102632.06;5076811;28;20030;-76
2022/01/29 04:26:49;;;;;;;77.22;23.85;;;;;;;5.58;98.90;102629.72;5079424;28;20278;-76
2022/01/29 04:29:14;;;;;;;74.82;23.85;;;;;;;5.60;99.35;102625.53;5079352;28;20200;-76
2022/01/29 04:31:47;;;;;;;79.60;24.08;;;;;;;5.60;98.86;102628.13;5074477;28;20020;-76
2022/01/29 04:34:12;;;;;;;70.93;24.95;;;;;;;5.61;99.32;102622.16;5075021;28;20043;-76
2022/01/29 04:36:38;;;;;;;76.75;25.20;;;;;;;5.62;99.06;102611.03;5074878;28;20011;-76
2022/01/29 04:39:04;;;;;;;73.00;23.92;;;;;;;5.64;99.37;102613.75;5072442;28;20016;-77
2022/01/29 04:41:29;;;;;;;73.45;22.48;;;;;;;5.65;99.21;102618.09;5077200;28;20021;-77
2022/01/29 04:43:54;;;;;;;81.78;25.10;;;;;;;5.66;99.60;102618.25;5079548;28;20047;-77
2022/01/29 04:46:20;;;;;;;77.07;24.60;;;;;;;5.67;99.26;102614.84;5082631;28;20032;-76
2022/01/29 04:48:45;;;;;;;78.38;25.25;;;;;;;5.67;99.45;102609.66;5073248;28;20298;-77
2022/01/29 04:51:11;;;;;;;73.60;24.23;;;;;;;5.68;99.20;102603.72;5081174;28;20209;-77
2022/01/29 04:53:36;;;;;;;82.18;25.27;;;;;;;5.71;99.35;102603.94;5082747;28;20019;-77
2022/01/29 04:56:01;;;;;;;78.05;24.25;;;;;;;5.74;99.82;102603.25;5080513;28;20012;-76
2022/01/29 04:58:27;;;;;;;79.47;24.95;;;;;;;5.75;99.66;102605.06;5081197;28;20033;-77
2022/01/29 05:00:52;;;;;;;87.45;25.45;;;;;;;5.74;99.78;102598.97;5075821;28;20021;-77
2022/01/29 05:03:18;;;;;;;80.97;26.00;;;;;;;5.77;99.83;102584.50;5083188;28;20032;-77
2022/01/29 05:05:43;;;;;;;81.22;25.88;;;;;;;5.78;99.74;102584.59;5083903;28;20285;-77
2022/01/29 05:08:11;;;;;;;83.75;26.08;;;;;;;5.80;100.00;102590.75;5087010;28;20021;-77
2022/01/29 05:10:37;;;;;;;83.15;25.58;;;;;;;5.82;100.00;102589.19;5084044;28;20089;-77
2022/01/29 05:13:08;;;;;;;83.60;25.77;;;;;;;5.84;100.00;102581.56;5084670;28;20024;-77
2022/01/29 05:26:53;;;;;;;82.18;26.20;;;;;;;5.91;100.00;102557.91;5078573;28;20022;-77
2022/01/29 05:29:18;;;;;;;79.55;26.02;;;;;;;5.93;100.00;102558.91;5078126;28;20085;-77
2022/01/29 05:31:44;;;;;;;82.63;26.42;;;;;;;5.94;100.00;102563.28;5079656;28;20267;-77
2022/01/29 05:34:10;;;;;;;90.80;27.88;;;;;;;5.95;100.00;102564.19;5085044;28;20285;-77
2022/01/29 05:36:35;;;;;;;80.00;24.95;;;;;;;5.96;100.00;102569.47;5082904;28;20028;-77
2022/01/29 05:39:02;;;;;;;86.20;27.05;;;;;;;5.99;99.92;102579.16;5084171;28;20016;-77
2022/01/29 05:41:30;;;;;;;89.40;26.25;;;;;;;5.99;100.00;102577.47;5082881;28;20091;-77
2022/01/29 05:43:56;;;;;;;92.32;27.83;;;;;;;6.01;100.00;102568.16;5084649;28;20358;-77
2022/01/29 05:46:22;;;;;;;83.28;27.02;;;;;;;6.03;100.00;102563.97;5081019;28;20259;-76
2022/01/29 05:48:47;;;;;;;90.18;26.58;;;;;;;6.03;100.00;102557.91;5084304;28;20029;-77
2022/01/29 05:51:13;;;;;;;90.15;27.88;;;;;;;6.05;100.00;102557.22;5077335;28;20341;-77
2022/01/29 05:53:39;;;;;;;88.47;27.00;;;;;;;6.07;100.00;102553.03;5077749;28;20004;-77
2022/01/29 05:56:05;;;;;;;91.30;27.08;;;;;;;6.07;100.00;102554.75;5079871;28;20009;-77
2022/01/29 05:58:30;;;;;;;91.93;28.08;;;;;;;6.09;100.00;102551.44;5084847;28;20282;-77
2022/01/29 06:00:55;;;;;;;81.20;27.58;;;;;;;6.09;100.00;102553.13;5079310;28;20028;-77
2022/01/29 06:03:21;;;;;;;99.80;29.17;;;;;;;6.10;100.00;102549.78;5079555;28;20031;-76
2022/01/29 06:05:47;;;;;;;94.38;27.05;;;;;;;6.13;100.00;102538.75;5081440;28;20020;-77
2022/01/29 06:08:12;;;;;;;96.57;28.80;;;;;;;6.12;100.00;102545.59;5084578;28;20029;-76
2022/01/29 06:10:37;;;;;;;98.07;29.08;;;;;;;6.15;100.00;102550.09;5080715;28;20054;-76
2022/01/29 06:13:08;;;;;;;92.82;29.60;;;;;;;6.16;100.00;102533.78;5080371;28;20025;-77
2022/01/29 06:15:40;;;;;;;90.72;27.95;;;;;;;6.16;100.00;102547.59;5082007;28;20028;-77
2022/01/29 06:18:06;;;;;;;88.63;27.20;;;;;;;6.19;100.00;102541.75;5068674;28;20036;-76
2022/01/29 06:20:32;;;;;;;93.88;28.27;;;;;;;6.20;100.00;102540.94;5072783;28;20242;-77
2022/01/29 06:22:57;;;;;;;93.43;29.00;;;;;;;6.20;100.00;102536.66;5071451;28;20263;-76
2022/01/29 06:25:23;;;;;;;92.38;28.60;;;;;;;6.20;100.00;102528.91;5071744;28;20024;-77
2022/01/29 06:27:48;;;;;;;86.30;27.60;;;;;;;6.22;100.00;102536.78;5082523;28;20028;-77
2022/01/29 06:30:15;;;;;;;88.97;27.95;;;;;;;6.24;100.00;102525.75;5081248;28;20052;-77
2022/01/29 06:32:40;;;;;;;93.30;28.30;;;;;;;6.28;100.00;102538.88;5081336;28;20212;-77
2022/01/29 06:35:06;;;;;;;93.60;29.70;;;;;;;6.29;100.00;102535.50;5080989;28;20342;-77
2022/01/29 06:37:31;;;;;;;92.45;28.60;;;;;;;6.31;100.00;102536.50;5083454;28;20047;-76
2022/01/29 06:39:56;;;;;;;94.38;27.75;;;;;;;6.31;100.00;102545.16;5083088;28;20024;-77
2022/01/29 06:42:22;;;;;;;98.10;28.60;;;;;;;6.34;100.00;102527.25;5084622;28;20011;-76
2022/01/29 06:44:47;;;;;;;86.28;26.85;;;;;;;6.35;100.00;102522.97;5086255;28;20024;-77
2022/01/29 06:47:12;;;;;;;90.53;28.30;;;;;;;6.36;100.00;102517.03;5082801;28;20028;-77
2022/01/29 06:49:38;;;;;;;99.57;29.42;;;;;;;6.38;100.00;102521.47;5083196;28;20050;-77
2022/01/29 06:52:03;;;;;;;95.93;29.20;;;;;;;6.39;100.00;102517.22;5081080;28;20025;-77
2022/01/29 06:54:29;;;;;;;93.63;28.77;;;;;;;6.40;100.00;102517.31;5078960;28;20167;-77
2022/01/29 06:56:55;;;;;;;93.45;30.65;;;;;;;6.43;100.00;102516.59;5077176;28;20258;-77
2022/01/29 06:59:20;;;;;;;92.72;30.05;;;;;;;6.44;100.00;102506.38;5081764;28;20275;-77
2022/01/29 07:01:45;;;;;;;90.70;29.77;;;;;;;6.45;100.00;102502.09;5076584;28;20048;-77
2022/01/29 07:04:11;;;;;;;93.90;28.42;;;;;;;6.48;100.00;102504.00;5083374;28;20340;-77
2022/01/29 07:06:36;;;;;;;85.88;28.38;;;;;;;6.48;100.00;102497.09;5082522;28;20026;-77
2022/01/29 07:09:02;;;;;;;91.53;28.40;;;;;;;6.49;100.00;102498.00;5083755;28;20202;-77
2022/01/29 07:11:28;;;;;;;95.15;28.75;;;;;;;6.52;100.00;102495.66;5079121;28;20290;-77
2022/01/29 07:14:01;;;;;;;89.10;28.52;;;;;;;6.53;100.00;102495.75;5082237;28;20024;-77
2022/01/29 07:16:30;;;;;;;83.85;26.70;;;;;;;6.54;100.00;102481.97;5081704;28;20042;-76
2022/01/29 07:18:56;;;;;;;83.47;26.05;;;;;;;6.56;100.00;102485.59;5083121;28;20081;-77
2022/01/29 07:21:21;;;;;;;90.60;28.70;;;;;;;6.58;100.00;102488.28;5081329;28;20262;-76
2022/01/29 07:23:47;;;;;;;88.40;27.65;;;;;;;6.61;100.00;102491.06;5079880;28;20020;-77
2022/01/29 07:26:12;;;;;;;85.88;28.00;;;;;;;6.64;100.00;102492.97;5078036;28;20228;-77
2022/01/29 07:28:39;;;;;;;85.93;27.92;;;;;;;6.66;100.00;102481.00;5077435;28;20024;-77
2022/01/29 07:31:04;;;;;;;83.55;28.08;;;;;;;6.66;100.00;102492.25;5081272;28;20016;-77
2022/01/29 07:33:29;;;;;;;88.07;27.75;;;;;;;6.69;100.00;102489.88;5083005;28;20020;-76
2022/01/29 07:35:55;;;;;;;78.30;26.00;;;;;;;6.68;100.00;102490.66;5079730;28;20047;-76
2022/01/29 07:38:21;;;;;;;87.28;26.35;;;;;;;6.69;100.00;102487.28;5081685;28;20028;-76
2022/01/29 07:40:46;;;;;;;76.80;27.00;;;;;;;6.70;100.00;102489.06;5076593;28;20028;-76
2022/01/29 07:43:11;;;;;;;92.15;28.40;;;;;;;6.71;100.00;102488.28;5080707;28;20031;-76
2022/01/29 07:45:37;;;;;;;85.07;27.50;;;;;;;6.72;100.00;102487.50;5081938;28;20036;-76
2022/01/29 07:48:02;;;;;;;83.55;26.85;;;;;;;6.75;100.00;102487.69;5084118;28;20017;-77
2022/01/29 07:50:27;;;;;;;75.28;26.75;;;;;;;6.78;100.00;102487.00;5075335;28;20042;-76
2022/01/29 07:52:54;;;;;;;82.20;26.10;;;;;;;6.78;100.00;102482.72;5076767;28;20209;-76
2022/01/29 07:55:20;;;;;;;75.88;25.45;;;;;;;6.82;100.00;102485.50;5066329;28;20299;-76
2022/01/29 07:57:45;;;;;;;77.43;26.75;;;;;;;6.85;100.00;102488.28;5083390;28;20024;-76
2022/01/29 08:00:11;;;;;;;77.95;26.23;;;;;;;6.87;100.00;102481.53;5079671;28;20036;-77
2022/01/29 08:02:36;;;;;;;85.20;26.42;;;;;;;6.88;100.00;102475.53;5076427;28;20016;-77
2022/01/29 08:05:02;;;;;;;78.70;25.63;;;;;;;6.88;100.00;102473.84;5073786;28;20031;-77
2022/01/29 08:07:27;;;;;;;80.97;27.10;;;;;;;6.92;100.00;102472.34;5076797;28;20020;-77
2022/01/29 08:09:52;;;;;;;85.50;27.55;;;;;;;6.95;100.00;102469.94;5081943;28;20263;-77
2022/01/29 08:12:18;;;;;;;75.35;25.17;;;;;;;6.98;100.00;102470.16;5074759;28;20055;-76
2022/01/29 08:14:43;;;;;;;75.10;25.15;;;;;;;7.00;100.00;102462.47;5075163;28;20039;-76
2022/01/29 08:17:08;;;;;;;79.38;26.73;;;;;;;7.02;100.00;102472.13;5082047;28;20138;-76
2022/01/29 08:19:34;;;;;;;75.05;26.17;;;;;;;7.04;100.00;102461.84;5081118;28;20175;-76
2022/01/29 08:22:01;;;;;;;80.53;27.15;;;;;;;7.08;100.00;102457.00;5082624;28;20259;-77
2022/01/29 08:24:27;;;;;;;83.65;27.00;;;;;;;7.12;100.00;102448.59;5075518;28;20255;-77
2022/01/29 08:26:52;;;;;;;77.40;26.73;;;;;;;7.17;100.00;102455.75;5075589;28;20020;-77
2022/01/29 08:29:17;;;;;;;74.13;26.55;;;;;;;7.19;100.00;102444.69;5075382;28;20092;-77
2022/01/29 08:31:43;;;;;;;78.90;26.92;;;;;;;7.20;100.00;102445.59;5068260;28;20021;-77
2022/01/29 08:34:08;;;;;;;74.85;25.45;;;;;;;7.24;100.00;102448.50;5074497;28;20020;-77
2022/01/29 08:36:33;;;;;;;78.57;25.38;;;;;;;7.25;100.00;102441.59;5070200;28;20262;-77
2022/01/29 08:38:59;;;;;;;73.10;26.48;;;;;;;7.28;100.00;102445.25;5080420;28;20211;-77
2022/01/29 08:41:24;;;;;;;75.07;26.50;;;;;;;7.33;100.00;102445.59;5087008;28;20016;-77
2022/01/29 08:43:49;;;;;;;72.80;25.95;;;;;;;7.35;100.00;102433.59;5084402;28;20066;-76
2022/01/29 08:46:15;;;;;;;71.85;23.35;;;;;;;7.35;100.00;102433.59;5083594;28;20009;-77
2022/01/29 08:48:41;;;;;;;72.88;26.02;;;;;;;7.38;100.00;102432.91;5080330;28;20148;-76
2022/01/29 08:51:06;;;;;;;69.32;25.10;;;;;;;7.42;100.00;102432.28;5085941;28;20122;-76
2022/01/29 08:53:31;;;;;;;70.30;25.95;;;;;;;7.44;100.00;102430.66;5074713;28;20277;-76
2022/01/29 08:55:57;;;;;;;64.07;24.58;;;;;;;7.46;100.00;102434.28;5083486;28;20215;-77
2022/01/29 08:58:22;;;;;;;75.68;25.60;;;;;;;7.48;100.00;102425.75;5084314;28;20028;-77
2022/01/29 09:00:48;;;;;;;69.10;24.65;;;;;;;7.48;100.00;102425.75;5082933;28;20009;-77
2022/01/29 09:03:16;;;;;;;65.93;25.73;;;;;;;7.50;100.00;102433.63;5085279;28;20334;-77
2022/01/29 09:05:43;;;;;;;64.63;24.17;;;;;;;7.51;100.00;102426.78;5086992;28;20025;-77
2022/01/29 09:08:08;;;;;;;73.13;25.83;;;;;;;7.52;100.00;102418.16;5090105;28;20027;-77
2022/01/29 09:10:34;;;;;;;65.28;23.67;;;;;;;7.55;100.00;102410.59;5087194;28;20012;-77
2022/01/29 09:12:59;;;;;;;67.93;24.77;;;;;;;7.58;100.00;102409.06;5081960;28;20145;-77
2022/01/29 09:15:24;;;;;;;69.32;25.65;;;;;;;7.59;100.00;102405.69;5079580;28;20294;-77
2022/01/29 09:17:50;;;;;;;66.70;23.67;;;;;;;7.62;100.00;102412.78;5081360;28;20066;-77
2022/01/29 09:20:15;;;;;;;68.32;25.20;;;;;;;7.65;100.00;102405.16;5080461;28;20017;-76
2022/01/29 09:22:41;;;;;;;66.78;24.58;;;;;;;7.69;100.00;102408.81;5081336;28;20159;-77
2022/01/29 09:25:06;;;;;;;64.40;23.05;;;;;;;7.71;100.00;102400.34;5075891;28;20301;-77
2022/01/29 09:27:32;;;;;;;63.03;23.77;;;;;;;7.73;100.00;102393.53;5080574;28;20028;-77
2022/01/29 09:29:57;;;;;;;63.40;24.02;;;;;;;7.74;99.60;102400.53;5087045;28;20122;-77
2022/01/29 09:32:24;;;;;;;58.30;23.00;;;;;;;7.77;99.77;102407.59;5085565;28;20250;-77
2022/01/29 09:34:49;;;;;;;57.67;22.70;;;;;;;7.78;99.61;102407.69;5085186;28;20023;-77
2022/01/29 09:37:15;;;;;;;60.13;22.42;;;;;;;7.80;99.63;102403.47;5077480;28;20036;-77
2022/01/29 09:39:42;;;;;;;54.67;22.33;;;;;;;7.82;99.45;102413.94;5081423;28;20091;-77
2022/01/29 09:42:09;;;;;;;64.65;24.00;;;;;;;7.86;99.26;102415.03;5082337;28;20174;-77
2022/01/29 09:44:35;;;;;;;57.40;22.42;;;;;;;7.91;99.55;102416.22;5081122;28;20016;-77
2022/01/29 09:47:02;;;;;;;59.40;23.77;;;;;;;7.95;99.27;102402.59;5078820;28;20028;-77
2022/01/29 09:49:31;;;;;;;53.50;22.02;;;;;;;7.98;99.13;102411.47;5078327;28;20032;-76
2022/01/29 09:52:05;;;;;;;54.60;21.77;;;;;;;8.00;99.01;102408.97;5080273;28;20020;-76
2022/01/29 09:54:30;;;;;;;56.15;22.70;;;;;;;8.03;98.77;102408.28;5069299;28;20023;-70
2022/01/29 09:56:56;;;;;;;59.90;22.65;;;;;;;8.04;99.36;102410.97;5078490;28;20048;-70
2022/01/29 09:59:22;;;;;;;53.55;21.70;;;;;;;8.06;98.58;102409.34;5078379;28;20066;-70
2022/01/29 10:01:47;;;;;;;57.72;22.05;;;;;;;8.08;98.59;102415.53;5070788;28;20038;-70
2022/01/29 10:04:12;;;;;;;56.45;22.17;;;;;;;8.11;98.45;102415.72;5080516;28;20171;-70
2022/01/29 10:06:42;;;;;;;56.88;22.30;;;;;;;8.16;98.24;102409.06;5074215;28;20031;-70
2022/01/29 10:09:11;;;;;;;52.38;22.00;;;;;;;8.21;98.07;102405.84;5080500;28;20020;-70
2022/01/29 10:11:37;;;;;;;54.85;22.17;;;;;;;8.24;97.94;102403.44;5076162;28;20028;-70
2022/01/29 10:14:05;;;;;;;53.58;22.15;;;;;;;8.25;97.83;102410.41;5085169;28;20057;-70
2022/01/29 10:16:32;;;;;;;52.97;21.45;;;;;;;8.24;97.76;102404.34;5071637;28;20033;-70
2022/01/29 10:19:04;;;;;;;51.63;21.88;;;;;;;8.28;97.62;102402.81;5078177;28;20039;-70
2022/01/29 10:21:37;;;;;;;50.50;21.42;;;;;;;8.30;97.65;102390.81;5080792;28;20142;-70
2022/01/29 10:24:12;;;;;;;47.92;20.92;;;;;;;8.35;97.31;102394.56;5065713;28;20017;-70
2022/01/29 10:26:45;;;;;;;55.03;21.63;;;;;;;8.38;97.01;102392.13;5081366;28;20028;-70
2022/01/29 10:29:27;;;;;;;57.85;21.58;;;;;;;8.43;97.10;102385.53;5085771;28;20025;-70
2022/01/29 10:31:55;;;;;;;49.28;20.45;;;;;;;8.44;97.13;102382.13;5082755;28;20028;-70
2022/01/29 10:34:24;;;;;;;49.42;20.50;;;;;;;8.48;96.71;102373.69;5076899;28;20024;-70
2022/01/29 10:37:12;;;;;;;48.40;20.38;;;;;;;8.51;96.52;102358.28;5074637;28;20105;-70
2022/01/29 10:39:39;;;;;;;51.95;20.52;;;;;;;8.55;96.13;102359.38;5083335;28;20107;-70
2022/01/29 10:42:14;;;;;;;45.85;20.20;;;;;;;8.57;96.10;102352.53;5080376;28;20024;-70
2022/01/29 10:44:45;;;;;;;45.75;19.48;;;;;;;8.58;95.95;102353.47;5071128;28;20316;-70
2022/01/29 10:47:11;;;;;;;42.83;19.45;;;;;;;8.61;95.70;102358.81;5082323;28;21770;-70
2022/01/29 10:49:44;;;;;;;44.75;19.90;;;;;;;8.67;95.52;102343.56;5083985;28;21107;-70
2022/01/29 10:52:11;;;;;;;44.40;18.55;;;;;;;8.68;95.36;102338.44;5075906;28;20377;-70
2022/01/29 10:54:47;;;;;;;45.20;19.35;;;;;;;8.72;94.95;102338.63;5079141;28;20263;-71
2022/01/29 10:57:17;;;;;;;44.38;19.27;;;;;;;8.75;95.11;102334.50;5076361;28;20062;-71
2022/01/29 10:59:51;;;;;;;44.20;19.45;;;;;;;8.76;95.04;102338.91;5084220;28;20016;-70
2022/01/29 11:02:19;;;;;;;38.55;17.27;;;;;;;8.81;94.46;102344.34;5077697;28;20213;-71
2022/01/29 11:04:46;;;;;;;38.20;17.25;;;;;;;8.81;94.44;102342.63;5073627;28;20024;-70
2022/01/29 11:07:20;;;;;;;37.40;16.73;;;;;;;8.84;94.54;102336.72;5078818;28;20036;-71
2022/01/29 11:09:50;;;;;;;42.08;17.90;;;;;;;8.84;94.78;102340.19;5084155;28;20020;-71
2022/01/29 11:12:23;;;;;;;36.13;16.88;;;;;;;8.84;94.22;102327.19;5083457;28;20065;-71
2022/01/29 11:14:51;;;;;;;34.08;16.15;;;;;;;8.85;94.05;102318.59;5074297;28;20086;-70
2022/01/29 11:17:18;;;;;;;31.60;15.27;;;;;;;8.90;93.91;102330.94;5081119;28;20178;-70
2022/01/29 11:19:44;;;;;;;31.98;15.15;;;;;;;8.92;93.63;102326.72;5079843;28;20056;-70
2022/01/29 11:22:10;;;;;;;32.03;15.23;;;;;;;8.92;93.45;102311.13;5078265;28;20027;-70